sensor_id;sensor_type;location;lat;lon;timestamp;P1;durP1;ratioP1;P2;durP2;ratioP2
3405;SDS011;10008;48.682;9.016;2023-04-03T00:01:31;9.27;;;8.27;;
3405;SDS011;10008;48.682;9.016;2023-04-03T00:03:57;8.67;;;7.67;;
3405;SDS011;10008;48.682;9.016;2023-04-03T00:06:23;8.37;;;7.50;;
3405;SDS011;10008;48.682;9.016;2023-04-03T00:08:51;8.90;;;7.90;;
3405;SDS011;10008;48.682;9.016;2023-04-03T00:11:17;8.87;;;7.67;;
3405;SDS011;10008;48.682;9.016;2023-04-03T00:13:44;11.40;;;7.30;;
3405;SDS011;10008;48.682;9.016;2023-04-03T00:16:10;9.97;;;8.37;;
3405;SDS011;10008;48.682;9.016;2023-04-03T00:18:37;9.37;;;8.10;;
3405;SDS011;10008;48.682;9.016;2023-04-03T00:21:04;12.83;;;8.43;;
3405;SDS011;10008;48.682;9.016;2023-04-03T00:23:31;9.80;;;7.90;;
3405;SDS011;10008;48.682;9.016;2023-04-03T00:25:57;9.27;;;8.10;;
3405;SDS011;10008;48.682;9.016;2023-04-03T00:28:23;8.90;;;8.00;;
3405;SDS011;10008;48.682;9.016;2023-04-03T00:30:49;9.47;;;8.47;;
3405;SDS011;10008;48.682;9.016;2023-04-03T00:33:15;9.27;;;8.33;;
3405;SDS011;10008;48.682;9.016;2023-04-03T00:35:41;9.20;;;8.30;;
3405;SDS011;10008;48.682;9.016;2023-04-03T00:38:07;10.43;;;8.60;;
3405;SDS011;10008;48.682;9.016;2023-04-03T00:40:34;10.53;;;8.93;;
3405;SDS011;10008;48.682;9.016;2023-04-03T00:43:01;10.67;;;9.20;;
3405;SDS011;10008;48.682;9.016;2023-04-03T00:45:37;9.23;;;8.33;;
3405;SDS011;10008;48.682;9.016;2023-04-03T00:48:08;8.67;;;7.77;;
3405;SDS011;10008;48.682;9.016;2023-04-03T00:50:38;12.50;;;8.67;;
3405;SDS011;10008;48.682;9.016;2023-04-03T00:53:06;9.70;;;8.73;;
3405;SDS011;10008;48.682;9.016;2023-04-03T00:55:35;9.37;;;8.43;;
3405;SDS011;10008;48.682;9.016;2023-04-03T00:58:02;10.57;;;9.17;;
3405;SDS011;10008;48.682;9.016;2023-04-03T01:00:30;9.70;;;8.70;;
3405;SDS011;10008;48.682;9.016;2023-04-03T01:02:55;9.30;;;8.40;;
3405;SDS011;10008;48.682;9.016;2023-04-03T01:05:22;10.07;;;8.80;;
3405;SDS011;10008;48.682;9.016;2023-04-03T01:07:48;10.30;;;8.73;;
3405;SDS011;10008;48.682;9.016;2023-04-03T01:10:16;9.27;;;8.37;;
3405;SDS011;10008;48.682;9.016;2023-04-03T01:12:45;11.00;;;8.70;;
3405;SDS011;10008;48.682;9.016;2023-04-03T01:15:17;9.10;;;8.10;;
3405;SDS011;10008;48.682;9.016;2023-04-03T01:20:25;9.37;;;7.97;;
3405;SDS011;10008;48.682;9.016;2023-04-03T01:25:42;9.87;;;7.47;;
3405;SDS011;10008;48.682;9.016;2023-04-03T01:28:13;11.80;;;8.20;;
3405;SDS011;10008;48.682;9.016;2023-04-03T01:30:59;9.07;;;8.10;;
3405;SDS011;10008;48.682;9.016;2023-04-03T01:33:33;9.67;;;7.80;;
3405;SDS011;10008;48.682;9.016;2023-04-03T01:35:59;11.80;;;9.50;;
3405;SDS011;10008;48.682;9.016;2023-04-03T01:38:26;9.17;;;8.20;;
3405;SDS011;10008;48.682;9.016;2023-04-03T01:40:52;9.70;;;8.80;;
3405;SDS011;10008;48.682;9.016;2023-04-03T01:43:18;8.77;;;7.87;;
3405;SDS011;10008;48.682;9.016;2023-04-03T01:45:43;9.30;;;8.40;;
3405;SDS011;10008;48.682;9.016;2023-04-03T01:48:09;9.13;;;8.23;;
3405;SDS011;10008;48.682;9.016;2023-04-03T01:50:35;9.30;;;8.17;;
3405;SDS011;10008;48.682;9.016;2023-04-03T01:53:01;9.40;;;7.80;;
3405;SDS011;10008;48.682;9.016;2023-04-03T01:55:27;8.40;;;7.60;;
3405;SDS011;10008;48.682;9.016;2023-04-03T01:57:53;10.40;;;8.50;;
3405;SDS011;10008;48.682;9.016;2023-04-03T02:00:19;8.87;;;7.93;;
3405;SDS011;10008;48.682;9.016;2023-04-03T02:02:45;10.73;;;7.40;;
3405;SDS011;10008;48.682;9.016;2023-04-03T02:05:10;8.83;;;7.90;;
3405;SDS011;10008;48.682;9.016;2023-04-03T02:07:39;10.03;;;8.47;;
3405;SDS011;10008;48.682;9.016;2023-04-03T02:10:07;8.40;;;7.60;;
3405;SDS011;10008;48.682;9.016;2023-04-03T02:12:33;8.53;;;7.63;;
3405;SDS011;10008;48.682;9.016;2023-04-03T02:14:58;8.80;;;7.90;;
3405;SDS011;10008;48.682;9.016;2023-04-03T02:17:25;9.17;;;8.00;;
3405;SDS011;10008;48.682;9.016;2023-04-03T02:19:53;9.80;;;8.47;;
3405;SDS011;10008;48.682;9.016;2023-04-03T02:22:19;9.80;;;8.80;;
3405;SDS011;10008;48.682;9.016;2023-04-03T02:24:45;9.00;;;8.10;;
3405;SDS011;10008;48.682;9.016;2023-04-03T02:27:11;9.90;;;9.00;;
3405;SDS011;10008;48.682;9.016;2023-04-03T02:29:37;9.77;;;8.40;;
3405;SDS011;10008;48.682;9.016;2023-04-03T02:32:03;10.23;;;8.47;;
3405;SDS011;10008;48.682;9.016;2023-04-03T02:34:30;9.33;;;7.57;;
3405;SDS011;10008;48.682;9.016;2023-04-03T02:36:58;8.80;;;7.90;;
3405;SDS011;10008;48.682;9.016;2023-04-03T02:39:24;9.80;;;8.13;;
3405;SDS011;10008;48.682;9.016;2023-04-03T02:41:51;8.90;;;7.83;;
3405;SDS011;10008;48.682;9.016;2023-04-03T02:44:22;9.83;;;8.30;;
3405;SDS011;10008;48.682;9.016;2023-04-03T02:46:49;9.10;;;8.20;;
3405;SDS011;10008;48.682;9.016;2023-04-03T02:49:16;9.07;;;8.10;;
3405;SDS011;10008;48.682;9.016;2023-04-03T02:51:42;9.43;;;8.03;;
3405;SDS011;10008;48.682;9.016;2023-04-03T02:54:08;10.60;;;8.30;;
3405;SDS011;10008;48.682;9.016;2023-04-03T02:56:36;11.57;;;8.33;;
3405;SDS011;10008;48.682;9.016;2023-04-03T02:59:02;10.50;;;8.37;;
3405;SDS011;10008;48.682;9.016;2023-04-03T03:01:28;8.73;;;7.73;;
3405;SDS011;10008;48.682;9.016;2023-04-03T03:03:57;9.07;;;7.83;;
3405;SDS011;10008;48.682;9.016;2023-04-03T03:06:23;9.07;;;8.20;;
3405;SDS011;10008;48.682;9.016;2023-04-03T03:08:49;8.63;;;7.70;;
3405;SDS011;10008;48.682;9.016;2023-04-03T03:11:15;9.43;;;8.53;;
3405;SDS011;10008;48.682;9.016;2023-04-03T03:13:41;9.57;;;8.43;;
3405;SDS011;10008;48.682;9.016;2023-04-03T03:16:07;12.20;;;8.20;;
3405;SDS011;10008;48.682;9.016;2023-04-03T03:18:33;9.83;;;7.73;;
3405;SDS011;10008;48.682;9.016;2023-04-03T03:21:00;9.43;;;8.53;;
3405;SDS011;10008;48.682;9.016;2023-04-03T03:23:27;9.07;;;8.17;;
3405;SDS011;10008;48.682;9.016;2023-04-03T03:25:57;9.20;;;8.27;;
3405;SDS011;10008;48.682;9.016;2023-04-03T03:28:27;11.17;;;7.93;;
3405;SDS011;10008;48.682;9.016;2023-04-03T03:30:54;9.93;;;8.23;;
3405;SDS011;10008;48.682;9.016;2023-04-03T03:33:21;8.67;;;7.77;;
3405;SDS011;10008;48.682;9.016;2023-04-03T03:35:47;9.80;;;8.80;;
3405;SDS011;10008;48.682;9.016;2023-04-03T03:38:12;9.70;;;8.80;;
3405;SDS011;10008;48.682;9.016;2023-04-03T03:40:38;11.37;;;8.30;;
3405;SDS011;10008;48.682;9.016;2023-04-03T03:43:04;9.30;;;8.40;;
3405;SDS011;10008;48.682;9.016;2023-04-03T03:45:31;10.07;;;9.17;;
3405;SDS011;10008;48.682;9.016;2023-04-03T03:47:56;9.83;;;8.93;;
3405;SDS011;10008;48.682;9.016;2023-04-03T03:50:23;9.47;;;8.57;;
3405;SDS011;10008;48.682;9.016;2023-04-03T03:52:49;10.20;;;9.20;;
3405;SDS011;10008;48.682;9.016;2023-04-03T03:55:16;9.97;;;9.00;;
3405;SDS011;10008;48.682;9.016;2023-04-03T03:57:49;10.07;;;9.07;;
3405;SDS011;10008;48.682;9.016;2023-04-03T04:00:15;10.20;;;8.97;;
3405;SDS011;10008;48.682;9.016;2023-04-03T04:02:43;9.43;;;8.53;;
3405;SDS011;10008;48.682;9.016;2023-04-03T04:05:13;10.30;;;9.30;;
3405;SDS011;10008;48.682;9.016;2023-04-03T04:07:39;11.53;;;9.73;;
3405;SDS011;10008;48.682;9.016;2023-04-03T04:10:05;9.73;;;8.83;;
3405;SDS011;10008;48.682;9.016;2023-04-03T04:12:31;9.90;;;8.90;;
3405;SDS011;10008;48.682;9.016;2023-04-03T04:14:56;10.30;;;9.30;;
3405;SDS011;10008;48.682;9.016;2023-04-03T04:17:22;13.20;;;10.67;;
3405;SDS011;10008;48.682;9.016;2023-04-03T04:19:49;11.37;;;10.40;;
3405;SDS011;10008;48.682;9.016;2023-04-03T04:22:14;12.13;;;11.00;;
3405;SDS011;10008;48.682;9.016;2023-04-03T04:24:41;11.90;;;10.90;;
3405;SDS011;10008;48.682;9.016;2023-04-03T04:27:07;10.70;;;9.80;;
3405;SDS011;10008;48.682;9.016;2023-04-03T04:29:34;11.10;;;10.00;;
3405;SDS011;10008;48.682;9.016;2023-04-03T04:32:02;11.13;;;10.23;;
3405;SDS011;10008;48.682;9.016;2023-04-03T04:34:29;12.10;;;11.00;;
3405;SDS011;10008;48.682;9.016;2023-04-03T04:36:56;10.63;;;9.53;;
3405;SDS011;10008;48.682;9.016;2023-04-03T04:39:22;11.70;;;10.50;;
3405;SDS011;10008;48.682;9.016;2023-04-03T04:41:48;11.67;;;10.50;;
3405;SDS011;10008;48.682;9.016;2023-04-03T04:44:14;11.93;;;10.73;;
3405;SDS011;10008;48.682;9.016;2023-04-03T04:46:39;11.70;;;10.53;;
3405;SDS011;10008;48.682;9.016;2023-04-03T04:49:06;12.20;;;11.20;;
3405;SDS011;10008;48.682;9.016;2023-04-03T04:51:32;11.90;;;10.80;;
3405;SDS011;10008;48.682;9.016;2023-04-03T04:53:58;11.80;;;10.80;;
3405;SDS011;10008;48.682;9.016;2023-04-03T04:56:24;12.33;;;11.13;;
3405;SDS011;10008;48.682;9.016;2023-04-03T04:58:52;11.40;;;10.40;;
3405;SDS011;10008;48.682;9.016;2023-04-03T05:01:19;11.93;;;10.90;;
3405;SDS011;10008;48.682;9.016;2023-04-03T05:03:58;11.70;;;10.60;;
3405;SDS011;10008;48.682;9.016;2023-04-03T05:06:24;13.93;;;10.93;;
3405;SDS011;10008;48.682;9.016;2023-04-03T05:08:51;12.30;;;11.20;;
3405;SDS011;10008;48.682;9.016;2023-04-03T05:11:17;12.50;;;11.40;;
3405;SDS011;10008;48.682;9.016;2023-04-03T05:13:45;12.83;;;11.53;;
3405;SDS011;10008;48.682;9.016;2023-04-03T05:16:11;12.20;;;11.20;;
3405;SDS011;10008;48.682;9.016;2023-04-03T05:18:37;12.70;;;11.60;;
3405;SDS011;10008;48.682;9.016;2023-04-03T05:21:08;12.60;;;11.50;;
3405;SDS011;10008;48.682;9.016;2023-04-03T05:23:34;12.30;;;11.30;;
3405;SDS011;10008;48.682;9.016;2023-04-03T05:26:01;13.23;;;11.97;;
3405;SDS011;10008;48.682;9.016;2023-04-03T05:28:28;12.40;;;11.30;;
3405;SDS011;10008;48.682;9.016;2023-04-03T05:30:56;13.37;;;12.17;;
3405;SDS011;10008;48.682;9.016;2023-04-03T05:33:25;12.93;;;11.73;;
3405;SDS011;10008;48.682;9.016;2023-04-03T05:35:53;12.50;;;11.40;;
3405;SDS011;10008;48.682;9.016;2023-04-03T05:38:24;12.30;;;11.30;;
3405;SDS011;10008;48.682;9.016;2023-04-03T05:40:51;12.67;;;11.47;;
3405;SDS011;10008;48.682;9.016;2023-04-03T05:43:17;12.30;;;11.30;;
3405;SDS011;10008;48.682;9.016;2023-04-03T05:45:43;12.27;;;11.23;;
3405;SDS011;10008;48.682;9.016;2023-04-03T05:48:09;12.17;;;11.07;;
3405;SDS011;10008;48.682;9.016;2023-04-03T05:50:36;13.47;;;12.27;;
3405;SDS011;10008;48.682;9.016;2023-04-03T05:53:07;12.80;;;11.70;;
3405;SDS011;10008;48.682;9.016;2023-04-03T05:55:39;12.60;;;11.33;;
3405;SDS011;10008;48.682;9.016;2023-04-03T05:58:04;13.13;;;12.07;;
3405;SDS011;10008;48.682;9.016;2023-04-03T06:00:30;12.40;;;11.30;;
3405;SDS011;10008;48.682;9.016;2023-04-03T06:03:00;13.00;;;11.90;;
3405;SDS011;10008;48.682;9.016;2023-04-03T06:05:27;13.57;;;12.47;;
3405;SDS011;10008;48.682;9.016;2023-04-03T06:07:52;12.73;;;11.63;;
3405;SDS011;10008;48.682;9.016;2023-04-03T06:10:18;12.53;;;11.53;;
3405;SDS011;10008;48.682;9.016;2023-04-03T06:12:45;13.30;;;12.00;;
3405;SDS011;10008;48.682;9.016;2023-04-03T06:15:11;13.60;;;12.20;;
3405;SDS011;10008;48.682;9.016;2023-04-03T06:17:39;13.73;;;12.60;;
3405;SDS011;10008;48.682;9.016;2023-04-03T06:20:06;13.60;;;12.47;;
3405;SDS011;10008;48.682;9.016;2023-04-03T06:22:33;14.10;;;12.80;;
3405;SDS011;10008;48.682;9.016;2023-04-03T06:25:00;13.30;;;12.10;;
3405;SDS011;10008;48.682;9.016;2023-04-03T06:27:26;14.40;;;12.90;;
3405;SDS011;10008;48.682;9.016;2023-04-03T06:29:51;13.53;;;12.43;;
3405;SDS011;10008;48.682;9.016;2023-04-03T06:32:17;14.17;;;12.87;;
3405;SDS011;10008;48.682;9.016;2023-04-03T06:34:43;13.90;;;12.60;;
3405;SDS011;10008;48.682;9.016;2023-04-03T06:37:19;13.37;;;12.13;;
3405;SDS011;10008;48.682;9.016;2023-04-03T06:39:47;13.80;;;12.30;;
3405;SDS011;10008;48.682;9.016;2023-04-03T06:42:13;13.40;;;12.20;;
3405;SDS011;10008;48.682;9.016;2023-04-03T06:44:47;13.57;;;12.40;;
3405;SDS011;10008;48.682;9.016;2023-04-03T06:47:13;13.57;;;12.43;;
3405;SDS011;10008;48.682;9.016;2023-04-03T06:49:41;13.70;;;12.50;;
3405;SDS011;10008;48.682;9.016;2023-04-03T06:52:08;13.90;;;12.60;;
3405;SDS011;10008;48.682;9.016;2023-04-03T06:54:34;13.20;;;12.10;;
3405;SDS011;10008;48.682;9.016;2023-04-03T06:57:00;13.40;;;12.10;;
3405;SDS011;10008;48.682;9.016;2023-04-03T06:59:26;13.47;;;12.17;;
3405;SDS011;10008;48.682;9.016;2023-04-03T07:01:52;13.67;;;12.47;;
3405;SDS011;10008;48.682;9.016;2023-04-03T07:04:17;14.00;;;12.80;;
3405;SDS011;10008;48.682;9.016;2023-04-03T07:06:45;14.03;;;12.83;;
3405;SDS011;10008;48.682;9.016;2023-04-03T07:09:12;14.90;;;13.23;;
3405;SDS011;10008;48.682;9.016;2023-04-03T07:11:38;17.20;;;13.60;;
3405;SDS011;10008;48.682;9.016;2023-04-03T07:14:04;13.70;;;12.57;;
3405;SDS011;10008;48.682;9.016;2023-04-03T07:16:32;14.87;;;12.67;;
3405;SDS011;10008;48.682;9.016;2023-04-03T07:18:59;14.20;;;12.80;;
3405;SDS011;10008;48.682;9.016;2023-04-03T07:21:26;13.70;;;12.50;;
3405;SDS011;10008;48.682;9.016;2023-04-03T07:23:53;13.80;;;12.50;;
3405;SDS011;10008;48.682;9.016;2023-04-03T07:26:19;14.40;;;12.97;;
3405;SDS011;10008;48.682;9.016;2023-04-03T07:28:48;14.00;;;12.80;;
3405;SDS011;10008;48.682;9.016;2023-04-03T07:31:15;14.80;;;12.50;;
3405;SDS011;10008;48.682;9.016;2023-04-03T07:33:42;13.77;;;12.57;;
3405;SDS011;10008;48.682;9.016;2023-04-03T07:36:09;14.90;;;13.23;;
3405;SDS011;10008;48.682;9.016;2023-04-03T07:38:36;14.10;;;12.90;;
3405;SDS011;10008;48.682;9.016;2023-04-03T07:41:02;14.13;;;12.93;;
3405;SDS011;10008;48.682;9.016;2023-04-03T07:43:29;14.20;;;13.00;;
3405;SDS011;10008;48.682;9.016;2023-04-03T07:45:54;14.30;;;12.80;;
3405;SDS011;10008;48.682;9.016;2023-04-03T07:48:21;15.30;;;13.80;;
3405;SDS011;10008;48.682;9.016;2023-04-03T07:50:50;15.43;;;13.97;;
3405;SDS011;10008;48.682;9.016;2023-04-03T07:53:16;13.83;;;12.63;;
3405;SDS011;10008;48.682;9.016;2023-04-03T07:55:45;14.10;;;12.90;;
3405;SDS011;10008;48.682;9.016;2023-04-03T07:58:13;14.17;;;12.87;;
3405;SDS011;10008;48.682;9.016;2023-04-03T08:00:41;13.87;;;12.67;;
3405;SDS011;10008;48.682;9.016;2023-04-03T08:03:08;14.83;;;13.33;;
3405;SDS011;10008;48.682;9.016;2023-04-03T08:05:40;14.13;;;12.90;;
3405;SDS011;10008;48.682;9.016;2023-04-03T08:08:07;14.50;;;13.30;;
3405;SDS011;10008;48.682;9.016;2023-04-03T08:10:34;14.30;;;12.90;;
3405;SDS011;10008;48.682;9.016;2023-04-03T08:13:00;14.13;;;12.93;;
3405;SDS011;10008;48.682;9.016;2023-04-03T08:15:27;14.43;;;13.13;;
3405;SDS011;10008;48.682;9.016;2023-04-03T08:17:53;14.40;;;13.10;;
3405;SDS011;10008;48.682;9.016;2023-04-03T08:20:19;14.57;;;13.30;;
3405;SDS011;10008;48.682;9.016;2023-04-03T08:22:45;16.47;;;14.93;;
3405;SDS011;10008;48.682;9.016;2023-04-03T08:25:11;14.30;;;13.10;;
3405;SDS011;10008;48.682;9.016;2023-04-03T08:27:37;14.83;;;13.47;;
3405;SDS011;10008;48.682;9.016;2023-04-03T08:30:03;15.33;;;13.50;;
3405;SDS011;10008;48.682;9.016;2023-04-03T08:32:29;14.53;;;13.33;;
3405;SDS011;10008;48.682;9.016;2023-04-03T08:34:55;14.87;;;13.57;;
3405;SDS011;10008;48.682;9.016;2023-04-03T08:37:21;14.33;;;13.13;;
3405;SDS011;10008;48.682;9.016;2023-04-03T08:39:47;14.47;;;13.20;;
3405;SDS011;10008;48.682;9.016;2023-04-03T08:42:36;14.90;;;13.60;;
3405;SDS011;10008;48.682;9.016;2023-04-03T08:47:40;14.40;;;13.00;;
3405;SDS011;10008;48.682;9.016;2023-04-03T08:50:14;14.77;;;13.40;;
3405;SDS011;10008;48.682;9.016;2023-04-03T08:58:01;15.00;;;13.70;;
3405;SDS011;10008;48.682;9.016;2023-04-03T09:00:34;16.60;;;15.10;;
3405;SDS011;10008;48.682;9.016;2023-04-03T09:03:15;14.60;;;13.30;;
3405;SDS011;10008;48.682;9.016;2023-04-03T09:19:08;17.60;;;13.90;;
3405;SDS011;10008;48.682;9.016;2023-04-03T09:21:48;15.93;;;14.37;;
3405;SDS011;10008;48.682;9.016;2023-04-03T09:24:15;14.93;;;13.63;;
3405;SDS011;10008;48.682;9.016;2023-04-03T09:26:46;15.73;;;14.33;;
3405;SDS011;10008;48.682;9.016;2023-04-03T09:29:18;14.87;;;13.57;;
3405;SDS011;10008;48.682;9.016;2023-04-03T09:31:47;16.17;;;14.73;;
3405;SDS011;10008;48.682;9.016;2023-04-03T09:34:26;18.80;;;14.43;;
3405;SDS011;10008;48.682;9.016;2023-04-03T09:36:56;15.23;;;13.83;;
3405;SDS011;10008;48.682;9.016;2023-04-03T09:39:28;14.80;;;13.60;;
3405;SDS011;10008;48.682;9.016;2023-04-03T09:42:04;15.80;;;14.20;;
3405;SDS011;10008;48.682;9.016;2023-04-03T09:44:40;15.03;;;13.73;;
3405;SDS011;10008;48.682;9.016;2023-04-03T09:47:17;14.57;;;13.17;;
3405;SDS011;10008;48.682;9.016;2023-04-03T09:49:48;14.77;;;13.37;;
3405;SDS011;10008;48.682;9.016;2023-04-03T09:52:22;14.30;;;13.00;;
3405;SDS011;10008;48.682;9.016;2023-04-03T09:54:49;14.23;;;13.03;;
3405;SDS011;10008;48.682;9.016;2023-04-03T09:57:15;14.63;;;13.33;;
3405;SDS011;10008;48.682;9.016;2023-04-03T09:59:58;14.80;;;13.40;;
3405;SDS011;10008;48.682;9.016;2023-04-03T10:05:39;14.30;;;13.00;;
3405;SDS011;10008;48.682;9.016;2023-04-03T10:10:38;13.70;;;12.60;;
3405;SDS011;10008;48.682;9.016;2023-04-03T10:13:06;13.90;;;12.60;;
3405;SDS011;10008;48.682;9.016;2023-04-03T10:15:39;14.50;;;13.20;;
3405;SDS011;10008;48.682;9.016;2023-04-03T10:20:57;15.20;;;13.80;;
3405;SDS011;10008;48.682;9.016;2023-04-03T10:34:30;14.37;;;13.17;;
3405;SDS011;10008;48.682;9.016;2023-04-03T10:37:34;14.43;;;13.03;;
3405;SDS011;10008;48.682;9.016;2023-04-03T10:45:37;14.97;;;13.57;;
3405;SDS011;10008;48.682;9.016;2023-04-03T10:58:54;15.00;;;13.50;;
3405;SDS011;10008;48.682;9.016;2023-04-03T11:01:33;14.57;;;13.27;;
3405;SDS011;10008;48.682;9.016;2023-04-03T11:04:04;14.63;;;13.23;;
3405;SDS011;10008;48.682;9.016;2023-04-03T11:06:35;14.50;;;13.17;;
3405;SDS011;10008;48.682;9.016;2023-04-03T11:09:15;14.70;;;13.40;;
3405;SDS011;10008;48.682;9.016;2023-04-03T11:11:43;14.00;;;12.80;;
3405;SDS011;10008;48.682;9.016;2023-04-03T11:17:14;14.83;;;13.43;;
3405;SDS011;10008;48.682;9.016;2023-04-03T11:19:49;14.83;;;13.53;;
3405;SDS011;10008;48.682;9.016;2023-04-03T11:22:30;15.00;;;13.50;;
3405;SDS011;10008;48.682;9.016;2023-04-03T11:24:59;15.20;;;13.57;;
3405;SDS011;10008;48.682;9.016;2023-04-03T11:27:27;14.33;;;13.13;;
3405;SDS011;10008;48.682;9.016;2023-04-03T11:30:03;14.60;;;13.30;;
3405;SDS011;10008;48.682;9.016;2023-04-03T11:35:24;15.63;;;14.13;;
3405;SDS011;10008;48.682;9.016;2023-04-03T11:37:52;14.90;;;13.50;;
3405;SDS011;10008;48.682;9.016;2023-04-03T11:40:23;15.03;;;13.67;;
3405;SDS011;10008;48.682;9.016;2023-04-03T12:05:48;14.67;;;13.27;;
3405;SDS011;10008;48.682;9.016;2023-04-03T12:08:27;14.10;;;13.00;;
3405;SDS011;10008;48.682;9.016;2023-04-03T12:13:36;15.63;;;14.00;;
3405;SDS011;10008;48.682;9.016;2023-04-03T12:18:56;13.70;;;12.30;;
3405;SDS011;10008;48.682;9.016;2023-04-03T12:23:57;13.77;;;12.47;;
3405;SDS011;10008;48.682;9.016;2023-04-03T12:26:25;14.47;;;13.17;;
3405;SDS011;10008;48.682;9.016;2023-04-03T12:28:53;14.13;;;12.83;;
3405;SDS011;10008;48.682;9.016;2023-04-03T12:31:20;14.23;;;12.93;;
3405;SDS011;10008;48.682;9.016;2023-04-03T12:39:25;15.07;;;13.67;;
3405;SDS011;10008;48.682;9.016;2023-04-03T12:47:35;14.23;;;13.03;;
3405;SDS011;10008;48.682;9.016;2023-04-03T12:50:16;15.03;;;13.53;;
3405;SDS011;10008;48.682;9.016;2023-04-03T12:52:47;15.97;;;14.50;;
3405;SDS011;10008;48.682;9.016;2023-04-03T12:55:38;13.83;;;12.63;;
3405;SDS011;10008;48.682;9.016;2023-04-03T12:58:13;14.53;;;13.33;;
3405;SDS011;10008;48.682;9.016;2023-04-03T13:01:12;13.90;;;12.63;;
3405;SDS011;10008;48.682;9.016;2023-04-03T13:03:45;14.30;;;12.90;;
3405;SDS011;10008;48.682;9.016;2023-04-03T13:06:18;14.30;;;12.90;;
3405;SDS011;10008;48.682;9.016;2023-04-03T13:08:54;14.27;;;13.07;;
3405;SDS011;10008;48.682;9.016;2023-04-03T13:11:25;14.70;;;13.40;;
3405;SDS011;10008;48.682;9.016;2023-04-03T13:16:30;14.53;;;13.33;;
3405;SDS011;10008;48.682;9.016;2023-04-03T13:19:03;14.40;;;13.10;;
3405;SDS011;10008;48.682;9.016;2023-04-03T13:21:28;14.47;;;13.27;;
3405;SDS011;10008;48.682;9.016;2023-04-03T13:23:59;14.50;;;13.03;;
3405;SDS011;10008;48.682;9.016;2023-04-03T13:26:29;14.40;;;13.00;;
3405;SDS011;10008;48.682;9.016;2023-04-03T13:29:00;14.10;;;12.80;;
3405;SDS011;10008;48.682;9.016;2023-04-03T13:31:32;14.90;;;13.40;;
3405;SDS011;10008;48.682;9.016;2023-04-03T13:37:02;15.33;;;13.93;;
3405;SDS011;10008;48.682;9.016;2023-04-03T13:42:14;14.97;;;13.60;;
3405;SDS011;10008;48.682;9.016;2023-04-03T13:44:48;14.13;;;12.93;;
3405;SDS011;10008;48.682;9.016;2023-04-03T13:47:16;14.63;;;13.43;;
3405;SDS011;10008;48.682;9.016;2023-04-03T13:49:45;15.17;;;13.67;;
3405;SDS011;10008;48.682;9.016;2023-04-03T13:52:33;14.53;;;13.23;;
3405;SDS011;10008;48.682;9.016;2023-04-03T13:58:16;14.83;;;13.43;;
3405;SDS011;10008;48.682;9.016;2023-04-03T14:05:51;14.50;;;13.20;;
3405;SDS011;10008;48.682;9.016;2023-04-03T14:08:18;14.83;;;13.43;;
3405;SDS011;10008;48.682;9.016;2023-04-03T14:10:47;14.37;;;12.87;;
3405;SDS011;10008;48.682;9.016;2023-04-03T14:13:15;15.60;;;14.40;;
3405;SDS011;10008;48.682;9.016;2023-04-03T14:15:43;14.60;;;13.30;;
3405;SDS011;10008;48.682;9.016;2023-04-03T14:18:13;14.67;;;13.37;;
3405;SDS011;10008;48.682;9.016;2023-04-03T14:20:41;15.10;;;13.60;;
3405;SDS011;10008;48.682;9.016;2023-04-03T14:23:07;14.30;;;13.10;;
3405;SDS011;10008;48.682;9.016;2023-04-03T14:25:33;14.30;;;13.00;;
3405;SDS011;10008;48.682;9.016;2023-04-03T14:28:00;14.53;;;13.33;;
3405;SDS011;10008;48.682;9.016;2023-04-03T14:30:28;14.30;;;13.03;;
3405;SDS011;10008;48.682;9.016;2023-04-03T14:32:57;14.77;;;13.57;;
3405;SDS011;10008;48.682;9.016;2023-04-03T14:35:26;16.00;;;14.50;;
3405;SDS011;10008;48.682;9.016;2023-04-03T14:37:53;15.80;;;14.30;;
3405;SDS011;10008;48.682;9.016;2023-04-03T14:40:24;14.50;;;13.30;;
3405;SDS011;10008;48.682;9.016;2023-04-03T14:42:51;14.83;;;13.63;;
3405;SDS011;10008;48.682;9.016;2023-04-03T14:45:21;14.80;;;13.50;;
3405;SDS011;10008;48.682;9.016;2023-04-03T14:47:47;15.07;;;13.83;;
3405;SDS011;10008;48.682;9.016;2023-04-03T14:50:22;15.23;;;13.83;;
3405;SDS011;10008;48.682;9.016;2023-04-03T14:52:51;15.10;;;13.80;;
3405;SDS011;10008;48.682;9.016;2023-04-03T14:55:20;15.03;;;13.73;;
3405;SDS011;10008;48.682;9.016;2023-04-03T14:57:48;14.90;;;13.60;;
3405;SDS011;10008;48.682;9.016;2023-04-03T15:00:15;14.23;;;13.03;;
3405;SDS011;10008;48.682;9.016;2023-04-03T15:02:42;15.27;;;13.80;;
3405;SDS011;10008;48.682;9.016;2023-04-03T15:05:09;14.50;;;13.20;;
3405;SDS011;10008;48.682;9.016;2023-04-03T15:07:49;14.60;;;13.40;;
3405;SDS011;10008;48.682;9.016;2023-04-03T15:10:23;14.80;;;13.40;;
3405;SDS011;10008;48.682;9.016;2023-04-03T15:12:51;14.80;;;13.50;;
3405;SDS011;10008;48.682;9.016;2023-04-03T15:15:17;15.33;;;13.93;;
3405;SDS011;10008;48.682;9.016;2023-04-03T15:17:45;14.83;;;13.53;;
3405;SDS011;10008;48.682;9.016;2023-04-03T15:20:17;14.80;;;13.30;;
3405;SDS011;10008;48.682;9.016;2023-04-03T15:22:44;14.47;;;13.13;;
3405;SDS011;10008;48.682;9.016;2023-04-03T15:25:10;14.23;;;13.03;;
3405;SDS011;10008;48.682;9.016;2023-04-03T15:27:36;15.03;;;13.53;;
3405;SDS011;10008;48.682;9.016;2023-04-03T15:30:03;20.20;;;18.27;;
3405;SDS011;10008;48.682;9.016;2023-04-03T15:32:30;18.13;;;16.33;;
3405;SDS011;10008;48.682;9.016;2023-04-03T15:34:56;15.70;;;14.30;;
3405;SDS011;10008;48.682;9.016;2023-04-03T15:37:22;15.00;;;13.60;;
3405;SDS011;10008;48.682;9.016;2023-04-03T15:39:48;14.50;;;13.30;;
3405;SDS011;10008;48.682;9.016;2023-04-03T15:42:14;15.10;;;13.70;;
3405;SDS011;10008;48.682;9.016;2023-04-03T15:44:40;15.03;;;13.73;;
3405;SDS011;10008;48.682;9.016;2023-04-03T15:47:05;14.33;;;13.13;;
3405;SDS011;10008;48.682;9.016;2023-04-03T15:49:34;14.93;;;13.60;;
3405;SDS011;10008;48.682;9.016;2023-04-03T15:52:01;15.10;;;13.70;;
3405;SDS011;10008;48.682;9.016;2023-04-03T15:54:27;14.43;;;13.13;;
3405;SDS011;10008;48.682;9.016;2023-04-03T15:56:54;14.67;;;13.37;;
3405;SDS011;10008;48.682;9.016;2023-04-03T15:59:21;14.60;;;13.40;;
3405;SDS011;10008;48.682;9.016;2023-04-03T16:01:47;14.53;;;13.33;;
3405;SDS011;10008;48.682;9.016;2023-04-03T16:04:15;14.60;;;13.33;;
3405;SDS011;10008;48.682;9.016;2023-04-03T16:06:41;14.43;;;13.13;;
3405;SDS011;10008;48.682;9.016;2023-04-03T16:09:07;16.10;;;14.70;;
3405;SDS011;10008;48.682;9.016;2023-04-03T16:11:33;16.17;;;14.63;;
3405;SDS011;10008;48.682;9.016;2023-04-03T16:14:01;15.20;;;13.63;;
3405;SDS011;10008;48.682;9.016;2023-04-03T16:16:27;15.20;;;13.90;;
3405;SDS011;10008;48.682;9.016;2023-04-03T16:18:56;14.47;;;13.27;;
3405;SDS011;10008;48.682;9.016;2023-04-03T16:21:22;14.33;;;12.93;;
3405;SDS011;10008;48.682;9.016;2023-04-03T16:23:48;15.83;;;14.23;;
3405;SDS011;10008;48.682;9.016;2023-04-03T16:26:14;14.73;;;13.53;;
3405;SDS011;10008;48.682;9.016;2023-04-03T16:28:40;15.13;;;13.73;;
3405;SDS011;10008;48.682;9.016;2023-04-03T16:31:06;14.47;;;13.27;;
3405;SDS011;10008;48.682;9.016;2023-04-03T16:33:33;14.70;;;13.50;;
3405;SDS011;10008;48.682;9.016;2023-04-03T16:35:59;14.70;;;13.40;;
3405;SDS011;10008;48.682;9.016;2023-04-03T16:38:25;14.77;;;13.50;;
3405;SDS011;10008;48.682;9.016;2023-04-03T16:40:51;14.80;;;13.50;;
3405;SDS011;10008;48.682;9.016;2023-04-03T16:43:21;15.30;;;13.77;;
3405;SDS011;10008;48.682;9.016;2023-04-03T16:45:47;15.20;;;13.97;;
3405;SDS011;10008;48.682;9.016;2023-04-03T16:48:13;14.40;;;13.20;;
3405;SDS011;10008;48.682;9.016;2023-04-03T16:50:39;14.00;;;12.80;;
3405;SDS011;10008;48.682;9.016;2023-04-03T16:53:04;13.63;;;12.53;;
3405;SDS011;10008;48.682;9.016;2023-04-03T16:55:33;15.13;;;13.83;;